sensor_id;sensor_type;location;lat;lon;timestamp;temperature;humidity
51982;DHT22;37998;53.416;6.730;2024-03-23T00:54:32;6.30;99.90
51982;DHT22;37998;53.416;6.730;2024-03-23T00:56:58;6.20;99.90
51982;DHT22;37998;53.416;6.730;2024-03-23T00:59:24;6.20;99.90
51982;DHT22;37998;53.416;6.730;2024-03-23T01:01:53;6.10;99.90
51982;DHT22;37998;53.416;6.730;2024-03-23T01:04:19;6.10;99.90
51982;DHT22;37998;53.416;6.730;2024-03-23T01:06:45;6.10;99.90
51982;DHT22;37998;53.416;6.730;2024-03-23T01:09:11;6.00;99.90
51982;DHT22;37998;53.416;6.730;2024-03-23T01:11:40;6.00;99.90
51982;DHT22;37998;53.416;6.730;2024-03-23T01:14:06;6.00;99.90
51982;DHT22;37998;53.416;6.730;2024-03-23T01:16:32;5.90;99.90
51982;DHT22;37998;53.416;6.730;2024-03-23T01:18:58;6.10;99.90
51982;DHT22;37998;53.416;6.730;2024-03-23T01:21:24;5.90;99.90
51982;DHT22;37998;53.416;6.730;2024-03-23T01:23:50;5.90;99.90
51982;DHT22;37998;53.416;6.730;2024-03-23T01:26:16;5.90;99.90
51982;DHT22;37998;53.416;6.730;2024-03-23T01:28:42;5.90;99.90
51982;DHT22;37998;53.416;6.730;2024-03-23T01:31:08;5.90;99.90
51982;DHT22;37998;53.416;6.730;2024-03-23T01:33:36;5.90;99.90
51982;DHT22;37998;53.416;6.730;2024-03-23T01:36:02;5.80;99.90
51982;DHT22;37998;53.416;6.730;2024-03-23T01:38:28;5.80;99.90
51982;DHT22;37998;53.416;6.730;2024-03-23T01:40:58;5.70;99.90
51982;DHT22;37998;53.416;6.730;2024-03-23T01:43:24;5.70;99.90
51982;DHT22;37998;53.416;6.730;2024-03-23T01:45:50;5.80;99.90
51982;DHT22;37998;53.416;6.730;2024-03-23T01:48:20;5.70;99.90
51982;DHT22;37998;53.416;6.730;2024-03-23T01:50:46;5.60;99.90
51982;DHT22;37998;53.416;6.730;2024-03-23T01:53:17;5.60;99.90
51982;DHT22;37998;53.416;6.730;2024-03-23T01:55:45;5.60;99.90
51982;DHT22;37998;53.416;6.730;2024-03-23T01:58:11;5.60;99.90
51982;DHT22;37998;53.416;6.730;2024-03-23T02:00:37;5.60;99.90
51982;DHT22;37998;53.416;6.730;2024-03-23T02:03:28;5.50;99.90
51982;DHT22;37998;53.416;6.730;2024-03-23T02:05:54;5.60;99.90
51982;DHT22;37998;53.416;6.730;2024-03-23T02:08:22;5.50;99.90
51982;DHT22;37998;53.416;6.730;2024-03-23T02:10:50;5.50;99.90
51982;DHT22;37998;53.416;6.730;2024-03-23T02:13:18;5.50;99.90
51982;DHT22;37998;53.416;6.730;2024-03-23T02:15:47;5.60;99.90
51982;DHT22;37998;53.416;6.730;2024-03-23T02:18:14;5.60;99.90
51982;DHT22;37998;53.416;6.730;2024-03-23T02:20:40;5.60;99.90
51982;DHT22;37998;53.416;6.730;2024-03-23T02:23:13;5.60;99.90
51982;DHT22;37998;53.416;6.730;2024-03-23T02:25:42;5.60;99.90
51982;DHT22;37998;53.416;6.730;2024-03-23T02:28:09;5.50;99.90
51982;DHT22;37998;53.416;6.730;2024-03-23T02:30:35;5.50;99.90
51982;DHT22;37998;53.416;6.730;2024-03-23T02:33:01;5.50;99.90
51982;DHT22;37998;53.416;6.730;2024-03-23T02:35:27;5.40;99.90
51982;DHT22;37998;53.416;6.730;2024-03-23T02:37:53;5.40;99.90
51982;DHT22;37998;53.416;6.730;2024-03-23T02:40:20;5.50;99.90
51982;DHT22;37998;53.416;6.730;2024-03-23T02:42:46;5.40;99.90
51982;DHT22;37998;53.416;6.730;2024-03-23T02:45:12;5.40;99.90
51982;DHT22;37998;53.416;6.730;2024-03-23T02:47:38;5.40;99.90
51982;DHT22;37998;53.416;6.730;2024-03-23T02:50:04;5.40;99.90
51982;DHT22;37998;53.416;6.730;2024-03-23T02:52:30;5.40;99.90
51982;DHT22;37998;53.416;6.730;2024-03-23T02:54:56;5.30;99.90
51982;DHT22;37998;53.416;6.730;2024-03-23T02:57:22;5.40;99.90
51982;DHT22;37998;53.416;6.730;2024-03-23T02:59:48;5.30;99.90
51982;DHT22;37998;53.416;6.730;2024-03-23T03:02:15;5.30;99.90
51982;DHT22;37998;53.416;6.730;2024-03-23T03:04:42;5.30;99.90
51982;DHT22;37998;53.416;6.730;2024-03-23T03:07:08;5.30;99.90
51982;DHT22;37998;53.416;6.730;2024-03-23T03:09:34;5.30;99.90
51982;DHT22;37998;53.416;6.730;2024-03-23T03:12:03;5.20;99.90
51982;DHT22;37998;53.416;6.730;2024-03-23T03:14:29;5.20;99.90
51982;DHT22;37998;53.416;6.730;2024-03-23T03:16:58;5.20;99.90
51982;DHT22;37998;53.416;6.730;2024-03-23T03:19:24;5.20;99.90
51982;DHT22;37998;53.416;6.730;2024-03-23T03:21:54;5.20;99.90
51982;DHT22;37998;53.416;6.730;2024-03-23T03:24:20;5.10;99.90
51982;DHT22;37998;53.416;6.730;2024-03-23T03:26:46;5.10;99.90
51982;DHT22;37998;53.416;6.730;2024-03-23T03:29:12;5.10;99.90
51982;DHT22;37998;53.416;6.730;2024-03-23T03:31:39;5.00;99.90
51982;DHT22;37998;53.416;6.730;2024-03-23T03:34:05;5.00;99.90
51982;DHT22;37998;53.416;6.730;2024-03-23T03:36:31;5.00;99.90
51982;DHT22;37998;53.416;6.730;2024-03-23T03:38:57;5.10;99.90
51982;DHT22;37998;53.416;6.730;2024-03-23T03:41:24;5.00;99.90
51982;DHT22;37998;53.416;6.730;2024-03-23T03:43:50;5.00;99.90
51982;DHT22;37998;53.416;6.730;2024-03-23T03:46:16;5.00;99.90
51982;DHT22;37998;53.416;6.730;2024-03-23T03:48:42;5.00;99.90
51982;DHT22;37998;53.416;6.730;2024-03-23T03:51:14;5.00;99.90
51982;DHT22;37998;53.416;6.730;2024-03-23T03:53:41;5.00;99.90
51982;DHT22;37998;53.416;6.730;2024-03-23T03:56:07;5.00;99.90
51982;DHT22;37998;53.416;6.730;2024-03-23T03:58:33;5.00;99.90
51982;DHT22;37998;53.416;6.730;2024-03-23T04:00:59;4.90;99.90
51982;DHT22;37998;53.416;6.730;2024-03-23T04:03:26;5.00;99.90
51982;DHT22;37998;53.416;6.730;2024-03-23T04:05:53;5.00;99.90
51982;DHT22;37998;53.416;6.730;2024-03-23T04:08:21;5.00;99.90
51982;DHT22;37998;53.416;6.730;2024-03-23T04:10:47;5.00;99.90
51982;DHT22;37998;53.416;6.730;2024-03-23T04:13:16;5.00;99.90
51982;DHT22;37998;53.416;6.730;2024-03-23T04:15:42;5.00;99.90
51982;DHT22;37998;53.416;6.730;2024-03-23T04:18:11;5.00;99.90
51982;DHT22;37998;53.416;6.730;2024-03-23T04:20:37;4.90;99.90
51982;DHT22;37998;53.416;6.730;2024-03-23T04:23:04;5.00;99.90
51982;DHT22;37998;53.416;6.730;2024-03-23T04:25:30;5.00;99.90
51982;DHT22;37998;53.416;6.730;2024-03-23T04:27:57;5.00;99.90
51982;DHT22;37998;53.416;6.730;2024-03-23T04:30:23;5.00;99.90
51982;DHT22;37998;53.416;6.730;2024-03-23T04:32:54;4.90;99.90
51982;DHT22;37998;53.416;6.730;2024-03-23T04:35:22;5.00;99.90
51982;DHT22;37998;53.416;6.730;2024-03-23T04:37:51;4.90;99.90
51982;DHT22;37998;53.416;6.730;2024-03-23T04:40:18;4.90;99.90
51982;DHT22;37998;53.416;6.730;2024-03-23T04:42:44;4.90;99.90
51982;DHT22;37998;53.416;6.730;2024-03-23T04:45:11;4.90;99.90
51982;DHT22;37998;53.416;6.730;2024-03-23T04:47:38;4.90;99.90
51982;DHT22;37998;53.416;6.730;2024-03-23T04:50:05;4.90;99.90
51982;DHT22;37998;53.416;6.730;2024-03-23T04:52:31;4.80;99.90
51982;DHT22;37998;53.416;6.730;2024-03-23T04:54:58;4.80;99.90
51982;DHT22;37998;53.416;6.730;2024-03-23T04:57:25;4.80;99.90
51982;DHT22;37998;53.416;6.730;2024-03-23T04:59:51;4.70;99.90
51982;DHT22;37998;53.416;6.730;2024-03-23T05:02:20;4.80;99.90
51982;DHT22;37998;53.416;6.730;2024-03-23T05:04:48;4.80;99.90
51982;DHT22;37998;53.416;6.730;2024-03-23T05:07:14;4.70;99.90
51982;DHT22;37998;53.416;6.730;2024-03-23T05:09:41;4.70;99.90
51982;DHT22;37998;53.416;6.730;2024-03-23T05:12:07;4.70;99.90
51982;DHT22;37998;53.416;6.730;2024-03-23T05:14:33;4.60;99.90
51982;DHT22;37998;53.416;6.730;2024-03-23T05:16:59;4.60;99.90
51982;DHT22;37998;53.416;6.730;2024-03-23T05:19:26;4.60;99.90
51982;DHT22;37998;53.416;6.730;2024-03-23T05:21:55;4.60;99.90
51982;DHT22;37998;53.416;6.730;2024-03-23T05:24:21;4.60;99.90
51982;DHT22;37998;53.416;6.730;2024-03-23T05:26:48;4.50;99.90
51982;DHT22;37998;53.416;6.730;2024-03-23T05:29:14;4.70;99.90
51982;DHT22;37998;53.416;6.730;2024-03-23T05:31:43;4.60;99.90
51982;DHT22;37998;53.416;6.730;2024-03-23T05:34:09;4.50;99.90
51982;DHT22;37998;53.416;6.730;2024-03-23T05:36:36;4.50;99.90
51982;DHT22;37998;53.416;6.730;2024-03-23T05:39:03;4.50;99.90
51982;DHT22;37998;53.416;6.730;2024-03-23T05:41:29;4.50;99.90
51982;DHT22;37998;53.416;6.730;2024-03-23T05:43:55;4.50;99.90
51982;DHT22;37998;53.416;6.730;2024-03-23T05:46:21;4.50;99.90
51982;DHT22;37998;53.416;6.730;2024-03-23T05:48:47;4.50;99.90
51982;DHT22;37998;53.416;6.730;2024-03-23T05:51:15;5.30;99.90
51982;DHT22;37998;53.416;6.730;2024-03-23T05:53:42;4.50;99.90
51982;DHT22;37998;53.416;6.730;2024-03-23T05:56:08;4.50;99.90
51982;DHT22;37998;53.416;6.730;2024-03-23T05:58:37;4.70;99.90
51982;DHT22;37998;53.416;6.730;2024-03-23T06:01:03;4.70;99.90
51982;DHT22;37998;53.416;6.730;2024-03-23T06:03:30;4.70;99.90
51982;DHT22;37998;53.416;6.730;2024-03-23T06:05:56;4.70;99.90
51982;DHT22;37998;53.416;6.730;2024-03-23T06:08:23;4.70;99.90
51982;DHT22;37998;53.416;6.730;2024-03-23T06:10:50;4.70;99.90
51982;DHT22;37998;53.416;6.730;2024-03-23T06:13:16;4.70;99.90
51982;DHT22;37998;53.416;6.730;2024-03-23T06:15:42;4.70;99.90
51982;DHT22;37998;53.416;6.730;2024-03-23T06:18:08;4.70;99.90
51982;DHT22;37998;53.416;6.730;2024-03-23T06:20:34;4.70;99.90
51982;DHT22;37998;53.416;6.730;2024-03-23T06:23:01;4.70;99.90
51982;DHT22;37998;53.416;6.730;2024-03-23T06:25:29;4.70;99.90
51982;DHT22;37998;53.416;6.730;2024-03-23T06:27:55;4.70;99.90
51982;DHT22;37998;53.416;6.730;2024-03-23T06:30:21;4.80;99.90
51982;DHT22;37998;53.416;6.730;2024-03-23T06:32:47;4.80;99.90
51982;DHT22;37998;53.416;6.730;2024-03-23T06:35:13;4.80;99.90
51982;DHT22;37998;53.416;6.730;2024-03-23T06:37:39;4.90;99.90
51982;DHT22;37998;53.416;6.730;2024-03-23T06:40:07;4.90;99.90
51982;DHT22;37998;53.416;6.730;2024-03-23T06:42:36;5.00;99.90
51982;DHT22;37998;53.416;6.730;2024-03-23T06:45:03;5.00;99.90
51982;DHT22;37998;53.416;6.730;2024-03-23T06:47:30;5.10;99.90
51982;DHT22;37998;53.416;6.730;2024-03-23T06:49:56;5.20;99.90
51982;DHT22;37998;53.416;6.730;2024-03-23T06:52:22;5.50;99.90
51982;DHT22;37998;53.416;6.730;2024-03-23T06:54:48;5.30;99.90
51982;DHT22;37998;53.416;6.730;2024-03-23T06:57:14;5.40;99.90
51982;DHT22;37998;53.416;6.730;2024-03-23T06:59:40;5.60;99.90
51982;DHT22;37998;53.416;6.730;2024-03-23T07:02:06;5.40;99.90
51982;DHT22;37998;53.416;6.730;2024-03-23T07:04:35;5.50;99.90
51982;DHT22;37998;53.416;6.730;2024-03-23T07:07:01;5.60;99.90
51982;DHT22;37998;53.416;6.730;2024-03-23T07:09:28;5.60;99.90
51982;DHT22;37998;53.416;6.730;2024-03-23T07:11:56;5.70;99.90
51982;DHT22;37998;53.416;6.730;2024-03-23T07:14:22;5.70;99.90
51982;DHT22;37998;53.416;6.730;2024-03-23T07:16:49;5.80;99.90
51982;DHT22;37998;53.416;6.730;2024-03-23T07:19:18;5.80;99.90
51982;DHT22;37998;53.416;6.730;2024-03-23T07:21:47;5.90;99.90
51982;DHT22;37998;53.416;6.730;2024-03-23T07:24:15;6.20;99.90
51982;DHT22;37998;53.416;6.730;2024-03-23T07:26:44;6.10;99.90
51982;DHT22;37998;53.416;6.730;2024-03-23T07:29:10;6.20;99.90
51982;DHT22;37998;53.416;6.730;2024-03-23T07:31:36;6.40;99.90
51982;DHT22;37998;53.416;6.730;2024-03-23T07:34:04;6.70;99.90
51982;DHT22;37998;53.416;6.730;2024-03-23T07:36:31;7.40;99.90
51982;DHT22;37998;53.416;6.730;2024-03-23T07:38:57;7.50;99.90
51982;DHT22;37998;53.416;6.730;2024-03-23T07:41:23;7.30;99.90
51982;DHT22;37998;53.416;6.730;2024-03-23T07:43:49;7.20;99.90
51982;DHT22;37998;53.416;6.730;2024-03-23T07:46:16;7.20;99.90
51982;DHT22;37998;53.416;6.730;2024-03-23T07:48:42;7.30;99.90
51982;DHT22;37998;53.416;6.730;2024-03-23T07:51:10;7.30;99.90
51982;DHT22;37998;53.416;6.730;2024-03-23T07:53:37;7.30;99.90
51982;DHT22;37998;53.416;6.730;2024-03-23T07:56:06;7.30;99.90
51982;DHT22;37998;53.416;6.730;2024-03-23T07:58:33;7.40;99.90
51982;DHT22;37998;53.416;6.730;2024-03-23T08:01:12;7.40;99.90
51982;DHT22;37998;53.416;6.730;2024-03-23T08:03:41;7.50;99.90
51982;DHT22;37998;53.416;6.730;2024-03-23T08:06:14;7.50;99.90
51982;DHT22;37998;53.416;6.730;2024-03-23T08:08:42;7.70;99.90
51982;DHT22;37998;53.416;6.730;2024-03-23T08:11:08;7.70;99.90
51982;DHT22;37998;53.416;6.730;2024-03-23T08:13:40;7.70;99.90
51982;DHT22;37998;53.416;6.730;2024-03-23T08:16:06;7.80;99.90
51982;DHT22;37998;53.416;6.730;2024-03-23T08:18:33;7.90;99.90
51982;DHT22;37998;53.416;6.730;2024-03-23T08:21:03;8.00;99.90
51982;DHT22;37998;53.416;6.730;2024-03-23T08:23:31;8.10;99.90
51982;DHT22;37998;53.416;6.730;2024-03-23T08:26:04;8.20;99.90
51982;DHT22;37998;53.416;6.730;2024-03-23T08:28:30;8.30;99.90
51982;DHT22;37998;53.416;6.730;2024-03-23T08:30:57;8.40;99.90
51982;DHT22;37998;53.416;6.730;2024-03-23T08:33:26;8.40;99.90
51982;DHT22;37998;53.416;6.730;2024-03-23T08:35:59;8.40;99.90
51982;DHT22;37998;53.416;6.730;2024-03-23T08:38:27;8.50;99.90
51982;DHT22;37998;53.416;6.730;2024-03-23T08:41:04;8.60;99.90
51982;DHT22;37998;53.416;6.730;2024-03-23T08:43:32;8.80;99.90
51982;DHT22;37998;53.416;6.730;2024-03-23T08:48:43;9.10;99.90
51982;DHT22;37998;53.416;6.730;2024-03-23T08:51:15;9.00;99.90
51982;DHT22;37998;53.416;6.730;2024-03-23T08:53:41;9.00;99.90
51982;DHT22;37998;53.416;6.730;2024-03-23T08:56:08;9.00;99.90
51982;DHT22;37998;53.416;6.730;2024-03-23T08:58:35;9.00;99.90
51982;DHT22;37998;53.416;6.730;2024-03-23T09:01:09;9.00;99.90
51982;DHT22;37998;53.416;6.730;2024-03-23T09:03:36;9.10;99.90
51982;DHT22;37998;53.416;6.730;2024-03-23T09:06:10;9.00;99.90
51982;DHT22;37998;53.416;6.730;2024-03-23T09:08:37;9.00;99.90
51982;DHT22;37998;53.416;6.730;2024-03-23T09:11:11;9.00;99.90
51982;DHT22;37998;53.416;6.730;2024-03-23T09:13:37;9.10;99.90
51982;DHT22;37998;53.416;6.730;2024-03-23T09:16:05;9.10;99.90
51982;DHT22;37998;53.416;6.730;2024-03-23T09:18:32;9.20;99.90
51982;DHT22;37998;53.416;6.730;2024-03-23T09:20:59;9.30;99.90
51982;DHT22;37998;53.416;6.730;2024-03-23T09:23:25;9.20;99.90
51982;DHT22;37998;53.416;6.730;2024-03-23T09:25:51;9.20;99.90
51982;DHT22;37998;53.416;6.730;2024-03-23T09:28:17;9.10;99.90
51982;DHT22;37998;53.416;6.730;2024-03-23T09:30:43;8.80;99.90
51982;DHT22;37998;53.416;6.730;2024-03-23T09:33:12;8.10;99.90
51982;DHT22;37998;53.416;6.730;2024-03-23T09:35:43;7.70;99.90
51982;DHT22;37998;53.416;6.730;2024-03-23T09:38:10;7.40;99.90
51982;DHT22;37998;53.416;6.730;2024-03-23T09:40:43;7.30;99.90
51982;DHT22;37998;53.416;6.730;2024-03-23T09:43:09;7.20;99.90
51982;DHT22;37998;53.416;6.730;2024-03-23T09:45:39;7.30;99.90
51982;DHT22;37998;53.416;6.730;2024-03-23T09:48:10;7.50;99.90
51982;DHT22;37998;53.416;6.730;2024-03-23T09:50:38;7.50;99.90
51982;DHT22;37998;53.416;6.730;2024-03-23T09:53:08;7.70;99.90
51982;DHT22;37998;53.416;6.730;2024-03-23T09:55:35;7.90;99.90
51982;DHT22;37998;53.416;6.730;2024-03-23T09:58:07;8.10;99.90
51982;DHT22;37998;53.416;6.730;2024-03-23T10:00:36;8.40;99.90
51982;DHT22;37998;53.416;6.730;2024-03-23T10:03:02;8.70;99.90
51982;DHT22;37998;53.416;6.730;2024-03-23T10:05:29;8.90;99.90
51982;DHT22;37998;53.416;6.730;2024-03-23T10:07:57;9.00;99.90
51982;DHT22;37998;53.416;6.730;2024-03-23T10:10:25;9.10;99.90
51982;DHT22;37998;53.416;6.730;2024-03-23T10:12:51;9.20;99.90
51982;DHT22;37998;53.416;6.730;2024-03-23T10:15:24;9.10;99.90
51982;DHT22;37998;53.416;6.730;2024-03-23T10:17:53;8.90;99.90
51982;DHT22;37998;53.416;6.730;2024-03-23T10:20:23;8.70;99.90
51982;DHT22;37998;53.416;6.730;2024-03-23T10:22:49;8.40;99.90
51982;DHT22;37998;53.416;6.730;2024-03-23T10:25:18;8.30;99.90
51982;DHT22;37998;53.416;6.730;2024-03-23T10:27:58;8.10;99.90
51982;DHT22;37998;53.416;6.730;2024-03-23T10:30:25;8.10;99.90
51982;DHT22;37998;53.416;6.730;2024-03-23T10:33:11;8.10;99.90
51982;DHT22;37998;53.416;6.730;2024-03-23T10:35:38;8.40;99.90
51982;DHT22;37998;53.416;6.730;2024-03-23T10:38:07;8.60;99.90
51982;DHT22;37998;53.416;6.730;2024-03-23T10:40:35;8.60;99.90
51982;DHT22;37998;53.416;6.730;2024-03-23T10:43:06;8.40;99.90
51982;DHT22;37998;53.416;6.730;2024-03-23T10:45:32;8.30;99.90
51982;DHT22;37998;53.416;6.730;2024-03-23T10:47:58;8.20;99.90
51982;DHT22;37998;53.416;6.730;2024-03-23T10:50:24;8.10;99.90
51982;DHT22;37998;53.416;6.730;2024-03-23T10:52:52;8.00;99.90
51982;DHT22;37998;53.416;6.730;2024-03-23T10:55:20;7.90;99.90
51982;DHT22;37998;53.416;6.730;2024-03-23T10:57:53;7.70;99.90
51982;DHT22;37998;53.416;6.730;2024-03-23T11:00:22;7.80;99.90
51982;DHT22;37998;53.416;6.730;2024-03-23T11:02:49;7.90;99.90
51982;DHT22;37998;53.416;6.730;2024-03-23T11:07:51;8.40;99.90
51982;DHT22;37998;53.416;6.730;2024-03-23T11:10:30;8.70;99.90
51982;DHT22;37998;53.416;6.730;2024-03-23T11:12:57;8.90;99.90
51982;DHT22;37998;53.416;6.730;2024-03-23T11:15:23;9.00;99.90
51982;DHT22;37998;53.416;6.730;2024-03-23T11:18:07;9.00;99.90
51982;DHT22;37998;53.416;6.730;2024-03-23T11:20:38;9.00;99.90
51982;DHT22;37998;53.416;6.730;2024-03-23T11:23:27;8.70;99.90
51982;DHT22;37998;53.416;6.730;2024-03-23T11:25:53;8.60;99.90
51982;DHT22;37998;53.416;6.730;2024-03-23T11:28:19;8.50;99.90
51982;DHT22;37998;53.416;6.730;2024-03-23T11:30:46;8.40;99.90
51982;DHT22;37998;53.416;6.730;2024-03-23T11:33:12;8.50;99.90
51982;DHT22;37998;53.416;6.730;2024-03-23T11:35:39;8.50;99.90
51982;DHT22;37998;53.416;6.730;2024-03-23T11:38:11;8.20;99.90
51982;DHT22;37998;53.416;6.730;2024-03-23T11:40:44;8.10;99.90
51982;DHT22;37998;53.416;6.730;2024-03-23T11:43:15;8.10;99.90
51982;DHT22;37998;53.416;6.730;2024-03-23T11:48:13;8.40;99.90
51982;DHT22;37998;53.416;6.730;2024-03-23T11:50:41;8.60;99.90
51982;DHT22;37998;53.416;6.730;2024-03-23T11:53:14;8.80;99.90
51982;DHT22;37998;53.416;6.730;2024-03-23T11:55:50;9.00;99.90
51982;DHT22;37998;53.416;6.730;2024-03-23T11:58:17;9.10;99.90
51982;DHT22;37998;53.416;6.730;2024-03-23T12:01:02;9.10;99.90
51982;DHT22;37998;53.416;6.730;2024-03-23T12:03:29;9.00;99.90
51982;DHT22;37998;53.416;6.730;2024-03-23T12:06:00;8.60;99.90
51982;DHT22;37998;53.416;6.730;2024-03-23T12:08:35;8.30;99.90
51982;DHT22;37998;53.416;6.730;2024-03-23T12:11:12;8.20;99.90
51982;DHT22;37998;53.416;6.730;2024-03-23T12:13:45;8.30;99.90
51982;DHT22;37998;53.416;6.730;2024-03-23T12:16:20;8.50;99.90
51982;DHT22;37998;53.416;6.730;2024-03-23T12:18:49;8.70;99.90
51982;DHT22;37998;53.416;6.730;2024-03-23T12:21:19;9.00;99.90
51982;DHT22;37998;53.416;6.730;2024-03-23T12:23:45;9.10;99.90
51982;DHT22;37998;53.416;6.730;2024-03-23T12:26:12;9.20;99.90
51982;DHT22;37998;53.416;6.730;2024-03-23T12:28:39;9.20;99.90
51982;DHT22;37998;53.416;6.730;2024-03-23T12:31:05;9.10;99.90
51982;DHT22;37998;53.416;6.730;2024-03-23T12:33:34;9.00;99.90
51982;DHT22;37998;53.416;6.730;2024-03-23T12:36:00;9.00;99.90
51982;DHT22;37998;53.416;6.730;2024-03-23T12:38:26;9.00;99.90
51982;DHT22;37998;53.416;6.730;2024-03-23T12:40:52;9.00;99.90
51982;DHT22;37998;53.416;6.730;2024-03-23T12:43:18;9.10;99.90
51982;DHT22;37998;53.416;6.730;2024-03-23T12:45:47;9.20;99.90
51982;DHT22;37998;53.416;6.730;2024-03-23T12:48:16;9.20;99.90
51982;DHT22;37998;53.416;6.730;2024-03-23T12:50:42;8.90;99.90
51982;DHT22;37998;53.416;6.730;2024-03-23T12:53:09;8.70;99.90
51982;DHT22;37998;53.416;6.730;2024-03-23T12:55:35;8.60;99.90
51982;DHT22;37998;53.416;6.730;2024-03-23T12:58:02;8.40;99.90
51982;DHT22;37998;53.416;6.730;2024-03-23T13:00:28;8.40;99.90
51982;DHT22;37998;53.416;6.730;2024-03-23T13:02:54;8.30;99.90
51982;DHT22;37998;53.416;6.730;2024-03-23T13:05:20;8.20;99.90
51982;DHT22;37998;53.416;6.730;2024-03-23T13:07:46;8.30;99.90
51982;DHT22;37998;53.416;6.730;2024-03-23T13:10:12;8.40;99.90
51982;DHT22;37998;53.416;6.730;2024-03-23T13:12:40;8.50;99.90
51982;DHT22;37998;53.416;6.730;2024-03-23T13:15:06;8.50;99.90
51982;DHT22;37998;53.416;6.730;2024-03-23T13:17:32;8.40;99.90
51982;DHT22;37998;53.416;6.730;2024-03-23T13:19:58;8.00;99.90
51982;DHT22;37998;53.416;6.730;2024-03-23T13:22:24;7.80;99.90
51982;DHT22;37998;53.416;6.730;2024-03-23T13:24:50;7.70;99.90
51982;DHT22;37998;53.416;6.730;2024-03-23T13:27:16;7.90;99.90
51982;DHT22;37998;53.416;6.730;2024-03-23T13:29:42;8.00;99.90
51982;DHT22;37998;53.416;6.730;2024-03-23T13:32:08;8.10;99.90
51982;DHT22;37998;53.416;6.730;2024-03-23T13:34:34;8.30;99.90
51982;DHT22;37998;53.416;6.730;2024-03-23T13:37:05;8.30;99.90
51982;DHT22;37998;53.416;6.730;2024-03-23T13:39:33;8.50;99.90
51982;DHT22;37998;53.416;6.730;2024-03-23T13:42:02;8.60;99.90
51982;DHT22;37998;53.416;6.730;2024-03-23T13:44:29;8.70;99.90
51982;DHT22;37998;53.416;6.730;2024-03-23T13:46:55;8.70;99.90
51982;DHT22;37998;53.416;6.730;2024-03-23T13:49:26;8.70;99.90
51982;DHT22;37998;53.416;6.730;2024-03-23T13:51:56;8.80;99.90
51982;DHT22;37998;53.416;6.730;2024-03-23T13:54:27;9.00;99.90
51982;DHT22;37998;53.416;6.730;2024-03-23T13:56:56;9.00;99.90
51982;DHT22;37998;53.416;6.730;2024-03-23T13:59:23;9.00;99.90
51982;DHT22;37998;53.416;6.730;2024-03-23T14:01:53;8.80;99.90
51982;DHT22;37998;53.416;6.730;2024-03-23T14:04:21;8.60;99.90
51982;DHT22;37998;53.416;6.730;2024-03-23T14:06:49;8.40;99.90
51982;DHT22;37998;53.416;6.730;2024-03-23T14:09:15;8.40;99.90
51982;DHT22;37998;53.416;6.730;2024-03-23T14:11:47;8.40;99.90
51982;DHT22;37998;53.416;6.730;2024-03-23T14:14:14;8.40;99.90
51982;DHT22;37998;53.416;6.730;2024-03-23T14:16:43;8.50;99.90
51982;DHT22;37998;53.416;6.730;2024-03-23T14:19:10;8.70;99.90
51982;DHT22;37998;53.416;6.730;2024-03-23T14:21:39;8.70;99.90
51982;DHT22;37998;53.416;6.730;2024-03-23T14:24:06;8.70;99.90
51982;DHT22;37998;53.416;6.730;2024-03-23T14:26:35;8.60;99.90
51982;DHT22;37998;53.416;6.730;2024-03-23T14:29:01;8.60;99.90
51982;DHT22;37998;53.416;6.730;2024-03-23T14:31:28;8.50;99.90
51982;DHT22;37998;53.416;6.730;2024-03-23T14:33:54;8.50;99.90
51982;DHT22;37998;53.416;6.730;2024-03-23T14:36:20;8.60;99.90
51982;DHT22;37998;53.416;6.730;2024-03-23T14:38:49;8.60;99.90
51982;DHT22;37998;53.416;6.730;2024-03-23T14:41:19;8.50;99.90
51982;DHT22;37998;53.416;6.730;2024-03-23T14:43:45;8.50;99.90
51982;DHT22;37998;53.416;6.730;2024-03-23T14:46:15;8.50;99.90
51982;DHT22;37998;53.416;6.730;2024-03-23T14:48:45;8.70;99.90
51982;DHT22;37998;53.416;6.730;2024-03-23T14:51:12;8.60;99.90
51982;DHT22;37998;53.416;6.730;2024-03-23T14:53:40;8.50;99.90
51982;DHT22;37998;53.416;6.730;2024-03-23T14:56:07;8.40;99.90
51982;DHT22;37998;53.416;6.730;2024-03-23T14:58:34;8.50;99.90
51982;DHT22;37998;53.416;6.730;2024-03-23T15:01:07;8.60;99.90
51982;DHT22;37998;53.416;6.730;2024-03-23T15:03:37;8.60;99.90
51982;DHT22;37998;53.416;6.730;2024-03-23T15:06:08;8.70;99.90
51982;DHT22;37998;53.416;6.730;2024-03-23T15:08:40;8.60;99.90
51982;DHT22;37998;53.416;6.730;2024-03-23T15:11:06;8.60;99.90
51982;DHT22;37998;53.416;6.730;2024-03-23T15:13:36;8.70;99.90
51982;DHT22;37998;53.416;6.730;2024-03-23T15:16:04;8.70;99.90
51982;DHT22;37998;53.416;6.730;2024-03-23T15:18:31;8.60;99.90
51982;DHT22;37998;53.416;6.730;2024-03-23T15:20:59;8.60;99.90
51982;DHT22;37998;53.416;6.730;2024-03-23T15:23:29;8.70;99.90
51982;DHT22;37998;53.416;6.730;2024-03-23T15:25:59;8.80;99.90
51982;DHT22;37998;53.416;6.730;2024-03-23T15:28:36;8.80;99.90
51982;DHT22;37998;53.416;6.730;2024-03-23T15:31:23;8.70;99.90
51982;DHT22;37998;53.416;6.730;2024-03-23T15:33:53;8.70;99.90
51982;DHT22;37998;53.416;6.730;2024-03-23T15:36:19;8.70;99.90
51982;DHT22;37998;53.416;6.730;2024-03-23T15:38:45;8.70;99.90
51982;DHT22;37998;53.416;6.730;2024-03-23T15:41:14;8.60;99.90
51982;DHT22;37998;53.416;6.730;2024-03-23T15:43:40;8.60;99.90
51982;DHT22;37998;53.416;6.730;2024-03-23T15:46:08;8.60;99.90
51982;DHT22;37998;53.416;6.730;2024-03-23T15:48:37;8.70;99.90
51982;DHT22;37998;53.416;6.730;2024-03-23T15:51:03;8.70;99.90
51982;DHT22;37998;53.416;6.730;2024-03-23T15:53:30;8.70;99.90
51982;DHT22;37998;53.416;6.730;2024-03-23T15:56:01;8.70;99.90
51982;DHT22;37998;53.416;6.730;2024-03-23T15:58:28;8.70;99.90
51982;DHT22;37998;53.416;6.730;2024-03-23T16:01:05;8.70;99.90
51982;DHT22;37998;53.416;6.730;2024-03-23T16:03:32;8.70;99.90
51982;DHT22;37998;53.416;6.730;2024-03-23T16:06:03;8.60;99.90
51982;DHT22;37998;53.416;6.730;2024-03-23T16:08:30;8.40;99.90
51982;DHT22;37998;53.416;6.730;2024-03-23T16:11:04;8.20;99.90
51982;DHT22;37998;53.416;6.730;2024-03-23T16:13:31;8.20;99.90
51982;DHT22;37998;53.416;6.730;2024-03-23T16:15:59;8.20;99.90
51982;DHT22;37998;53.416;6.730;2024-03-23T16:18:26;8.10;99.90
51982;DHT22;37998;53.416;6.730;2024-03-23T16:20:57;8.10;99.90
51982;DHT22;37998;53.416;6.730;2024-03-23T16:23:26;8.00;99.90
51982;DHT22;37998;53.416;6.730;2024-03-23T16:25:54;8.00;99.90
51982;DHT22;37998;53.416;6.730;2024-03-23T16:28:28;7.90;99.90
51982;DHT22;37998;53.416;6.730;2024-03-23T16:30:55;7.90;99.90
51982;DHT22;37998;53.416;6.730;2024-03-23T16:33:22;7.90;99.90
51982;DHT22;37998;53.416;6.730;2024-03-23T16:36:03;7.90;99.90
51982;DHT22;37998;53.416;6.730;2024-03-23T16:38:31;8.00;99.90
51982;DHT22;37998;53.416;6.730;2024-03-23T16:41:02;8.10;99.90
51982;DHT22;37998;53.416;6.730;2024-03-23T16:43:31;8.10;99.90
51982;DHT22;37998;53.416;6.730;2024-03-23T16:46:05;8.10;99.90
51982;DHT22;37998;53.416;6.730;2024-03-23T16:48:32;8.20;99.90
51982;DHT22;37998;53.416;6.730;2024-03-23T16:51:00;8.20;99.90